CPX794 Details

Departure: Aeropuerto Internacional Ezeiza/Ministro Pistarini (SAEZ)
Arrival: Miami International Airport (KMIA) at N/A
Route: UCA UA301 URSUS FLIPR6
Notes:


Current Weather Information
SAEZ 251100Z 08008KT CAVOK 10/10 Q1021 NOSIG
KMIA 251053Z 00000KT 10SM FEW025 SCT250 27/24 A2991 RMK AO2 SLP129 CB DSNT SW T02670244